createdAt,value
2019-04-25T00:00:11.692Z,44.70
2019-04-25T00:01:44.774Z,44.80
2019-04-25T00:03:17.534Z,44.80
2019-04-25T00:04:51.438Z,44.90
2019-04-25T00:06:24.042Z,45.10
2019-04-25T00:07:56.411Z,45.00
2019-04-25T00:09:28.825Z,45.20
2019-04-25T00:11:01.717Z,45.20
2019-04-25T00:12:35.891Z,45.10
2019-04-25T00:14:08.345Z,45.20
2019-04-25T00:15:41.948Z,45.20
2019-04-25T00:17:14.723Z,46.00
2019-04-25T00:18:47.066Z,45.30
2019-04-25T00:20:19.403Z,45.50
2019-04-25T00:21:51.860Z,45.40
2019-04-25T00:23:24.451Z,45.50
2019-04-25T00:24:56.780Z,45.50
2019-04-25T00:26:29.114Z,45.50
2019-04-25T00:28:01.882Z,45.50
2019-04-25T00:29:34.411Z,45.60
2019-04-25T00:31:06.820Z,45.70
2019-04-25T00:32:39.256Z,45.70
2019-04-25T00:34:12.085Z,45.80
2019-04-25T00:35:45.674Z,45.90
2019-04-25T00:37:18.285Z,46.00
2019-04-25T00:38:51.998Z,46.00
2019-04-25T00:40:24.854Z,46.00
2019-04-25T00:41:57.270Z,46.10
2019-04-25T00:43:31.352Z,46.30
2019-04-25T00:45:03.720Z,46.30
2019-04-25T00:46:36.098Z,46.30
2019-04-25T00:48:08.539Z,46.40
2019-04-25T00:49:43.073Z,46.30
2019-04-25T00:51:15.056Z,46.40
2019-04-25T00:52:48.263Z,46.50
2019-04-25T00:54:22.557Z,46.50
2019-04-25T00:55:55.369Z,46.70
2019-04-25T00:57:27.770Z,46.60
2019-04-25T00:59:01.855Z,46.70
2019-04-25T01:00:34.481Z,46.80
2019-04-25T01:02:09.209Z,46.90
2019-04-25T01:03:43.265Z,47.00
2019-04-25T01:05:15.382Z,47.10
2019-04-25T01:06:47.795Z,47.10
2019-04-25T01:08:21.899Z,47.30
2019-04-25T01:09:54.711Z,47.20
2019-04-25T01:11:27.142Z,47.20
2019-04-25T01:13:01.110Z,47.40
2019-04-25T01:14:33.794Z,47.40
2019-04-25T01:16:06.271Z,47.40
2019-04-25T01:17:38.781Z,47.60
2019-04-25T01:19:11.340Z,47.60
2019-04-25T01:20:43.739Z,47.80
2019-04-25T01:22:16.168Z,47.70
2019-04-25T01:23:49.349Z,47.90
2019-04-25T01:25:23.364Z,47.80
2019-04-25T01:26:55.990Z,47.90
2019-04-25T01:28:29.504Z,47.90
2019-04-25T01:30:01.975Z,48.00
2019-04-25T01:31:34.387Z,48.00
2019-04-25T01:33:06.873Z,48.10
2019-04-25T01:34:39.295Z,48.10
2019-04-25T01:36:13.280Z,48.20
2019-04-25T01:37:47.355Z,48.30
2019-04-25T01:39:19.836Z,48.30
2019-04-25T01:40:53.412Z,48.30
2019-04-25T01:42:30.070Z,48.50
2019-04-25T01:44:01.518Z,48.50
2019-04-25T01:45:34.144Z,48.70
2019-04-25T01:47:06.488Z,48.70
2019-04-25T01:48:38.857Z,48.90
2019-04-25T01:50:11.576Z,48.90
2019-04-25T01:51:44.079Z,48.90
2019-04-25T01:53:16.424Z,49.70
2019-04-25T01:54:49.293Z,49.10
2019-04-25T01:56:22.982Z,49.10
2019-04-25T01:57:56.003Z,49.20
2019-04-25T01:59:28.412Z,49.30
2019-04-25T02:01:00.750Z,49.30
2019-04-25T02:02:33.621Z,49.40
2019-04-25T02:04:06.091Z,49.40
2019-04-25T02:05:40.109Z,49.40
2019-04-25T02:07:13.512Z,49.50
2019-04-25T02:08:46.155Z,49.40
2019-04-25T02:10:18.580Z,49.50
2019-04-25T02:11:51.042Z,49.40
2019-04-25T02:13:23.699Z,49.60
2019-04-25T02:14:56.913Z,49.50
2019-04-25T02:16:30.081Z,49.60
2019-04-25T02:18:03.803Z,49.60
2019-04-25T02:19:36.304Z,49.70
2019-04-25T02:21:08.707Z,49.80
2019-04-25T02:22:41.058Z,49.70
2019-04-25T02:24:13.706Z,49.70
2019-04-25T02:25:46.336Z,49.80
2019-04-25T02:27:18.783Z,49.80
2019-04-25T02:28:52.403Z,49.80
2019-04-25T02:30:25.545Z,49.90
2019-04-25T02:32:02.030Z,49.90
2019-04-25T02:33:33.953Z,50.00
2019-04-25T02:35:09.406Z,50.00
2019-04-25T02:36:40.264Z,50.00
2019-04-25T02:38:16.589Z,50.00
2019-04-25T02:39:46.715Z,50.00
2019-04-25T02:41:19.217Z,50.00
2019-04-25T02:42:54.177Z,50.10
2019-04-25T02:44:25.656Z,50.20
2019-04-25T02:46:00.019Z,50.30
2019-04-25T02:47:34.292Z,50.40
2019-04-25T02:49:08.816Z,51.10
2019-04-25T02:50:40.324Z,50.50
2019-04-25T02:52:15.267Z,50.50
2019-04-25T02:53:46.693Z,50.60
2019-04-25T02:57:25.518Z,50.60
2019-04-25T02:58:58.482Z,50.60
2019-04-25T03:09:25.134Z,50.90
2019-04-25T03:10:58.690Z,51.00
2019-04-25T03:12:34.414Z,51.00
2019-04-25T03:14:08.237Z,51.10
2019-04-25T03:15:39.920Z,51.20
2019-04-25T03:17:14.239Z,51.20
2019-04-25T03:18:46.434Z,51.30
2019-04-25T03:20:18.775Z,51.30
2019-04-25T03:21:51.357Z,51.50
2019-04-25T03:23:24.521Z,51.50
2019-04-25T03:24:56.996Z,51.40
2019-04-25T03:26:39.830Z,51.50
2019-04-25T03:28:04.984Z,51.50
2019-04-25T03:29:37.679Z,51.50
2019-04-25T03:31:16.080Z,51.60
2019-04-25T03:32:45.077Z,51.60
2019-04-25T03:34:20.520Z,51.60
2019-04-25T03:35:53.243Z,51.60
2019-04-25T03:37:25.872Z,51.60
2019-04-25T03:38:58.425Z,51.70
2019-04-25T03:40:30.784Z,51.70
2019-04-25T03:42:04.903Z,51.80
2019-04-25T03:43:37.543Z,51.80
2019-04-25T03:45:10.767Z,51.90
2019-04-25T03:46:43.850Z,51.90
2019-04-25T03:48:16.428Z,52.00
2019-04-25T03:49:48.821Z,52.00
2019-04-25T03:51:21.236Z,51.90
2019-04-25T03:52:54.020Z,52.10
2019-04-25T03:54:26.597Z,52.10
2019-04-25T03:55:59.124Z,52.10
2019-04-25T03:57:33.100Z,52.10
2019-04-25T03:59:06.435Z,52.20
2019-04-25T04:00:39.739Z,52.30
2019-04-25T04:02:13.496Z,52.30
2019-04-25T04:03:46.343Z,52.30
2019-04-25T04:05:18.867Z,52.40
2019-04-25T04:06:51.227Z,52.50
2019-04-25T04:08:24.300Z,52.50
2019-04-25T04:09:57.808Z,52.50
2019-04-25T04:11:30.211Z,52.70
2019-04-25T04:13:04.213Z,52.60
2019-04-25T04:14:36.826Z,52.70
2019-04-25T04:16:10.523Z,52.80
2019-04-25T04:17:43.824Z,52.80
2019-04-25T04:19:16.528Z,52.90
2019-04-25T04:20:49.055Z,53.00
2019-04-25T04:22:21.552Z,53.00
2019-04-25T04:23:55.010Z,53.10
2019-04-25T04:25:28.020Z,53.00
2019-04-25T04:27:03.669Z,53.00
2019-04-25T04:28:34.563Z,53.10
2019-04-25T04:30:07.942Z,53.10
2019-04-25T04:31:40.645Z,53.20
2019-04-25T04:33:26.040Z,53.20
2019-04-25T04:34:47.355Z,53.10
2019-04-25T04:36:19.684Z,53.20
2019-04-25T04:37:52.163Z,53.20
2019-04-25T04:39:24.700Z,53.30
2019-04-25T04:40:57.027Z,53.20
2019-04-25T04:42:29.528Z,53.30
2019-04-25T04:44:01.955Z,53.30
2019-04-25T04:45:34.561Z,53.40
2019-04-25T04:47:08.472Z,53.40
2019-04-25T04:48:40.990Z,53.50
2019-04-25T04:50:14.471Z,53.50
2019-04-25T04:51:47.646Z,53.70
2019-04-25T04:53:20.057Z,54.40
2019-04-25T04:55:03.698Z,53.70
2019-04-25T04:56:26.681Z,53.80
2019-04-25T04:58:01.333Z,53.80
2019-04-25T04:59:33.778Z,53.80
2019-04-25T05:01:06.406Z,53.80
2019-04-25T05:02:38.819Z,53.90
2019-04-25T05:04:11.171Z,54.00
2019-04-25T05:05:44.056Z,53.90
2019-04-25T05:07:17.454Z,53.90
2019-04-25T05:08:50.010Z,54.00
2019-04-25T05:10:23.660Z,54.10
2019-04-25T05:11:56.780Z,54.00
2019-04-25T05:13:29.187Z,54.10
2019-04-25T05:15:01.654Z,54.00
2019-04-25T05:16:34.152Z,54.10
2019-04-25T05:18:08.291Z,54.10
2019-04-25T05:19:40.727Z,54.10
2019-04-25T05:21:14.836Z,54.00
2019-04-25T05:22:47.334Z,54.00
2019-04-25T05:24:20.814Z,54.10
2019-04-25T05:25:53.938Z,54.10
2019-04-25T05:27:37.149Z,54.00
2019-04-25T05:29:01.600Z,54.10
2019-04-25T05:30:34.026Z,54.00
2019-04-25T05:32:06.460Z,53.90
2019-04-25T05:33:38.976Z,53.90
2019-04-25T05:35:12.852Z,53.80
2019-04-25T05:36:45.493Z,53.90
2019-04-25T05:38:18.163Z,53.80
2019-04-25T05:39:50.592Z,53.80
2019-04-25T05:41:24.409Z,53.80
2019-04-25T05:42:57.424Z,53.70
2019-04-25T05:44:30.155Z,53.70
2019-04-25T05:46:03.365Z,53.60
2019-04-25T05:47:35.934Z,53.60
2019-04-25T05:49:08.391Z,53.70
2019-04-25T05:50:41.799Z,53.70
2019-04-25T05:52:33.461Z,53.60
2019-04-25T05:54:18.931Z,54.10
2019-04-25T05:55:51.395Z,53.30
2019-04-25T05:57:24.904Z,53.20
2019-04-25T05:58:57.615Z,53.20
2019-04-25T06:00:30.179Z,53.10
2019-04-25T06:02:03.931Z,53.00
2019-04-25T06:03:36.421Z,52.80
2019-04-25T06:05:09.400Z,52.70
2019-04-25T06:06:42.086Z,52.60
2019-04-25T06:08:14.633Z,52.50
2019-04-25T06:09:47.023Z,52.30
2019-04-25T06:11:19.588Z,52.20
2019-04-25T06:12:53.551Z,52.10
2019-04-25T06:14:26.274Z,52.00
2019-04-25T06:16:00.446Z,52.60
2019-04-25T06:17:34.306Z,51.70
2019-04-25T06:19:14.260Z,51.60
2019-04-25T06:20:41.275Z,51.40
2019-04-25T06:22:20.915Z,51.30
2019-04-25T06:23:54.437Z,51.10
2019-04-25T06:25:31.822Z,51.00
2019-04-25T06:27:01.269Z,50.90
2019-04-25T06:28:34.684Z,50.60
2019-04-25T06:30:07.230Z,50.50
2019-04-25T06:31:39.789Z,50.40
2019-04-25T06:33:13.932Z,50.20
2019-04-25T06:34:46.319Z,50.10
2019-04-25T06:36:18.771Z,50.00
2019-04-25T06:37:51.240Z,49.80
2019-04-25T06:39:24.380Z,49.60
2019-04-25T06:40:57.670Z,49.30
2019-04-25T06:42:30.299Z,49.70
2019-04-25T06:44:04.037Z,49.40
2019-04-25T06:45:36.638Z,48.50
2019-04-25T06:47:09.090Z,48.30
2019-04-25T06:48:41.496Z,48.00
2019-04-25T06:50:15.697Z,47.90
2019-04-25T06:51:48.378Z,47.80
2019-04-25T06:53:21.662Z,47.60
2019-04-25T06:54:54.919Z,47.50
2019-04-25T06:56:27.598Z,47.30
2019-04-25T06:58:10.241Z,47.20
2019-04-25T06:59:40.905Z,47.00
2019-04-25T07:01:15.014Z,46.90
2019-04-25T07:02:56.055Z,46.80
2019-04-25T07:04:29.230Z,46.70
2019-04-25T07:06:03.166Z,46.50
2019-04-25T07:07:35.950Z,46.40
2019-04-25T07:09:08.507Z,46.20
2019-04-25T07:10:41.271Z,46.10
2019-04-25T07:12:14.035Z,46.00
2019-04-25T07:13:46.649Z,45.80
2019-04-25T07:15:20.348Z,45.60
2019-04-25T07:16:53.262Z,45.40
2019-04-25T07:18:30.535Z,45.20
2019-04-25T07:19:59.928Z,44.80
2019-04-25T07:21:32.363Z,44.60
2019-04-25T07:23:04.850Z,44.40
2019-04-25T07:24:37.236Z,44.20
2019-04-25T07:26:09.650Z,44.00
2019-04-25T07:27:43.159Z,43.90
2019-04-25T07:29:16.253Z,43.60
2019-04-25T07:30:52.188Z,43.60
2019-04-25T07:32:24.614Z,43.30
2019-04-25T07:33:56.912Z,43.20
2019-04-25T07:35:29.559Z,43.10
2019-04-25T07:37:03.412Z,43.00
2019-04-25T07:38:36.461Z,42.90
2019-04-25T07:40:08.991Z,42.80
2019-04-25T07:41:41.392Z,42.70
2019-04-25T07:43:13.924Z,42.60
2019-04-25T07:45:01.792Z,42.50
2019-04-25T07:46:37.435Z,42.50
2019-04-25T07:48:11.444Z,42.30
2019-04-25T07:49:43.960Z,42.20
2019-04-25T07:51:16.662Z,42.10
2019-04-25T07:52:49.224Z,42.10
2019-04-25T07:54:24.174Z,42.00
2019-04-25T07:55:57.740Z,42.00
2019-04-25T07:57:30.195Z,42.00
2019-04-25T07:59:03.839Z,42.00
2019-04-25T08:00:37.594Z,41.90
2019-04-25T08:02:10.401Z,41.80
2019-04-25T08:03:44.643Z,41.80
2019-04-25T08:05:17.024Z,41.70
2019-04-25T08:06:49.519Z,41.70
2019-04-25T08:08:23.464Z,41.60
2019-04-25T08:09:56.015Z,41.60
2019-04-25T08:11:29.814Z,41.40
2019-04-25T08:13:03.268Z,41.30
2019-04-25T08:14:37.298Z,41.20
2019-04-25T08:16:10.152Z,41.20
2019-04-25T08:17:44.046Z,41.20
2019-04-25T08:19:17.054Z,41.20
2019-04-25T08:20:53.250Z,41.00
2019-04-25T08:22:25.904Z,41.70
2019-04-25T08:23:58.644Z,40.90
2019-04-25T08:25:31.117Z,40.80
2019-04-25T08:27:03.601Z,40.70
2019-04-25T08:28:49.551Z,40.60
2019-04-25T08:30:10.260Z,40.40
2019-04-25T08:31:43.944Z,40.20
2019-04-25T08:33:16.661Z,39.90
2019-04-25T08:34:49.176Z,39.80
2019-04-25T08:36:23.267Z,39.50
2019-04-25T08:37:56.204Z,39.40
2019-04-25T08:39:30.325Z,39.20
2019-04-25T08:41:04.084Z,39.00
2019-04-25T08:42:37.961Z,39.00
2019-04-25T08:44:10.660Z,38.70
2019-04-25T08:45:44.310Z,38.60
2019-04-25T08:47:20.000Z,38.50
2019-04-25T08:48:53.914Z,38.50
2019-04-25T08:50:31.155Z,38.40
2019-04-25T08:52:00.650Z,38.40
2019-04-25T08:53:35.317Z,38.30
2019-04-25T08:55:07.527Z,38.20
2019-04-25T08:56:42.471Z,38.20
2019-04-25T08:58:15.963Z,37.90
2019-04-25T08:59:52.658Z,37.80
2019-04-25T09:01:24.288Z,37.70
2019-04-25T09:02:56.979Z,37.60
2019-04-25T09:04:29.403Z,37.50
2019-04-25T09:06:03.391Z,37.30
2019-04-25T09:07:37.753Z,37.20
2019-04-25T09:09:10.715Z,37.00
2019-04-25T09:10:43.688Z,36.90
2019-04-25T09:12:17.345Z,36.80
2019-04-25T09:13:49.759Z,36.70
2019-04-25T09:15:22.115Z,36.60
2019-04-25T09:16:54.591Z,36.60
2019-04-25T09:18:27.130Z,36.60
2019-04-25T09:19:59.759Z,36.50
2019-04-25T09:21:36.874Z,36.40
2019-04-25T09:23:10.011Z,36.30
2019-04-25T09:24:44.103Z,36.20
2019-04-25T09:26:16.950Z,36.00
2019-04-25T09:27:49.934Z,35.90
2019-04-25T09:29:23.501Z,35.80
2019-04-25T09:30:57.879Z,35.50
2019-04-25T09:32:33.693Z,35.30
2019-04-25T09:34:06.108Z,35.10
2019-04-25T09:35:39.574Z,34.90
2019-04-25T09:37:12.256Z,34.50
2019-04-25T09:38:48.494Z,34.10
2019-04-25T09:40:20.708Z,33.60
2019-04-25T09:41:53.524Z,33.30
2019-04-25T09:43:26.223Z,33.10
2019-04-25T09:44:58.872Z,33.00
2019-04-25T09:46:31.580Z,32.80
2019-04-25T09:48:04.746Z,32.50
2019-04-25T09:49:38.000Z,32.30
2019-04-25T09:51:10.716Z,31.90
2019-04-25T09:52:44.375Z,31.50
2019-04-25T09:54:19.115Z,31.20
2019-04-25T09:55:51.520Z,31.80
2019-04-25T09:57:26.245Z,30.90
2019-04-25T09:58:58.684Z,30.80
2019-04-25T10:00:31.147Z,31.50
2019-04-25T10:02:06.222Z,30.30
2019-04-25T10:03:38.693Z,30.60
2019-04-25T10:05:11.296Z,31.40
2019-04-25T10:06:44.984Z,30.60
2019-04-25T10:08:18.325Z,30.60
2019-04-25T10:09:50.847Z,30.50
2019-04-25T10:11:23.794Z,30.40
2019-04-25T10:12:56.420Z,30.50
2019-04-25T10:14:29.159Z,30.50
2019-04-25T10:16:01.544Z,30.40
2019-04-25T10:17:34.019Z,30.40
2019-04-25T10:19:06.424Z,31.20
2019-04-25T10:20:41.420Z,30.50
2019-04-25T10:22:13.684Z,30.50
2019-04-25T10:23:46.808Z,30.50
2019-04-25T10:25:19.378Z,30.50
2019-04-25T10:26:54.379Z,30.60
2019-04-25T10:28:25.897Z,31.30
2019-04-25T10:29:58.278Z,30.50
2019-04-25T10:31:30.866Z,30.40
2019-04-25T10:33:04.056Z,30.20
2019-04-25T10:34:36.692Z,29.90
2019-04-25T10:36:09.116Z,29.60
2019-04-25T10:37:41.536Z,29.10
2019-04-25T10:39:14.726Z,28.90
2019-04-25T10:40:47.645Z,28.70
2019-04-25T10:42:20.089Z,28.50
2019-04-25T10:43:55.891Z,28.40
2019-04-25T10:45:26.928Z,28.40
2019-04-25T10:46:59.298Z,28.30
2019-04-25T10:48:31.988Z,28.20
2019-04-25T10:50:04.764Z,28.20
2019-04-25T10:51:37.124Z,28.10
2019-04-25T10:53:09.472Z,28.10
2019-04-25T10:54:41.952Z,27.60
2019-04-25T10:56:14.399Z,27.90
2019-04-25T10:57:46.824Z,27.80
2019-04-25T10:59:19.295Z,27.70
2019-04-25T11:00:52.815Z,27.60
2019-04-25T11:02:25.352Z,27.60
2019-04-25T11:03:57.716Z,27.40
2019-04-25T11:05:30.188Z,27.20
2019-04-25T11:07:03.742Z,27.00
2019-04-25T11:08:36.438Z,26.90
2019-04-25T11:10:09.236Z,26.80
2019-04-25T11:11:41.641Z,26.60
2019-04-25T11:13:14.396Z,26.40
2019-04-25T11:14:46.844Z,26.20
2019-04-25T11:16:19.176Z,26.00
2019-04-25T11:17:54.832Z,25.70
2019-04-25T11:19:28.583Z,25.60
2019-04-25T11:21:03.921Z,25.50
2019-04-25T11:22:35.851Z,25.30
2019-04-25T11:24:08.270Z,25.10
2019-04-25T11:25:41.455Z,25.10
2019-04-25T11:27:14.167Z,24.90
2019-04-25T11:28:46.595Z,24.70
2019-04-25T11:30:19.212Z,24.60
2019-04-25T11:31:51.610Z,24.40
2019-04-25T11:33:24.666Z,24.20
2019-04-25T11:34:57.383Z,24.10
2019-04-25T11:36:30.078Z,24.00
2019-04-25T11:38:03.452Z,23.70
2019-04-25T11:39:36.094Z,23.60
2019-04-25T11:41:09.402Z,23.30
2019-04-25T11:42:43.206Z,23.20
2019-04-25T11:44:16.296Z,23.10
2019-04-25T11:45:56.011Z,22.90
2019-04-25T11:47:29.590Z,22.70
2019-04-25T11:49:02.054Z,22.50
2019-04-25T11:50:36.914Z,22.30
2019-04-25T11:52:08.588Z,22.10
2019-04-25T11:53:40.999Z,22.00
2019-04-25T11:55:14.331Z,22.50
2019-04-25T11:56:47.363Z,21.70
2019-04-25T11:58:19.928Z,21.60
2019-04-25T11:59:52.467Z,22.00
2019-04-25T12:01:24.912Z,21.40
2019-04-25T12:02:57.380Z,21.70
2019-04-25T12:04:29.719Z,21.00
2019-04-25T12:06:02.236Z,20.80
2019-04-25T12:07:34.716Z,20.80
2019-04-25T12:09:07.132Z,20.70
2019-04-25T12:10:39.570Z,20.60
2019-04-25T12:12:11.979Z,20.30
2019-04-25T12:13:45.981Z,20.20
2019-04-25T12:15:36.663Z,20.10
2019-04-25T12:17:12.601Z,20.00
2019-04-25T12:18:47.985Z,19.80
2019-04-25T12:20:19.746Z,19.70
2019-04-25T12:21:53.795Z,19.60
2019-04-25T12:23:26.491Z,19.60
2019-04-25T12:24:59.025Z,19.50
2019-04-25T12:26:33.584Z,19.40
2019-04-25T12:28:05.824Z,19.30
2019-04-25T12:29:38.893Z,19.10
2019-04-25T12:31:11.454Z,19.10
2019-04-25T12:32:44.227Z,18.90
2019-04-25T12:34:16.751Z,19.00
2019-04-25T12:35:50.052Z,18.90
2019-04-25T12:37:23.544Z,19.00
2019-04-25T12:38:56.763Z,18.90
2019-04-25T12:40:29.166Z,19.00
2019-04-25T12:42:01.619Z,19.00
2019-04-25T12:43:34.093Z,19.10
2019-04-25T12:45:06.522Z,18.90
2019-04-25T12:46:38.932Z,19.00
2019-04-25T12:48:11.548Z,18.90
2019-04-25T12:49:46.642Z,18.80
2019-04-25T12:51:19.241Z,18.70
2019-04-25T12:52:53.310Z,18.50
2019-04-25T12:54:25.935Z,18.50
2019-04-25T12:56:16.761Z,18.50
2019-04-25T12:58:08.928Z,18.40
2019-04-25T12:59:44.946Z,18.30
2019-04-25T13:01:16.379Z,18.30
2019-04-25T13:02:48.820Z,18.30
2019-04-25T13:04:21.215Z,18.20
2019-04-25T13:05:54.056Z,18.20
2019-04-25T13:07:26.623Z,18.20
2019-04-25T13:08:59.494Z,18.70
2019-04-25T13:10:33.266Z,18.00
2019-04-25T13:12:05.982Z,18.00
2019-04-25T13:13:38.418Z,17.90
2019-04-25T13:15:11.129Z,17.80
2019-04-25T13:16:44.349Z,17.80
2019-04-25T13:18:16.906Z,17.80
2019-04-25T13:19:49.451Z,17.90
2019-04-25T13:21:23.404Z,17.90
2019-04-25T13:22:55.953Z,17.90
2019-04-25T13:24:28.463Z,17.90
2019-04-25T13:26:01.626Z,18.00
2019-04-25T13:27:34.254Z,18.00
2019-04-25T13:29:06.849Z,18.10
2019-04-25T13:30:41.158Z,18.00
2019-04-25T13:32:13.219Z,18.10
2019-04-25T13:33:45.643Z,18.10
2019-04-25T13:35:18.079Z,18.10
2019-04-25T13:36:50.481Z,18.20
2019-04-25T13:38:22.871Z,18.30
2019-04-25T13:39:55.329Z,18.40
2019-04-25T13:41:27.676Z,18.40
2019-04-25T13:43:00.124Z,18.50
2019-04-25T13:44:34.177Z,18.50
2019-04-25T13:46:06.703Z,18.60
2019-04-25T13:47:39.036Z,19.20
2019-04-25T13:49:11.679Z,18.70
2019-04-25T13:50:44.394Z,18.80
2019-04-25T13:52:17.787Z,18.70
2019-04-25T13:53:50.356Z,18.70
2019-04-25T13:55:23.971Z,18.80
2019-04-25T13:56:56.868Z,18.90
2019-04-25T13:58:30.768Z,18.90
2019-04-25T14:00:04.122Z,18.90
2019-04-25T14:01:36.659Z,19.00
2019-04-25T14:03:09.069Z,19.00
2019-04-25T14:04:41.500Z,19.00
2019-04-25T14:06:13.904Z,19.00
2019-04-25T14:07:46.366Z,19.00
2019-04-25T14:09:18.703Z,19.10
2019-04-25T14:10:51.139Z,19.10
2019-04-25T14:12:26.849Z,19.20
2019-04-25T14:13:58.163Z,19.10
2019-04-25T14:15:30.663Z,19.20
2019-04-25T14:17:06.856Z,19.20
2019-04-25T14:18:37.079Z,19.20
2019-04-25T14:20:09.532Z,19.30
2019-04-25T14:21:43.410Z,19.40
2019-04-25T14:23:16.085Z,19.40
2019-04-25T14:24:49.018Z,19.50
2019-04-25T14:26:22.966Z,20.00
2019-04-25T14:27:55.594Z,19.50
2019-04-25T14:29:28.273Z,19.50
2019-04-25T14:31:00.893Z,19.60
2019-04-25T14:32:33.960Z,19.60
2019-04-25T14:34:07.550Z,19.60
2019-04-25T14:35:40.122Z,19.70
2019-04-25T14:37:12.462Z,19.70
2019-04-25T14:38:44.918Z,19.70
2019-04-25T14:40:17.325Z,19.70
2019-04-25T14:41:49.697Z,19.80
2019-04-25T14:43:22.511Z,19.70
2019-04-25T14:44:55.205Z,19.80
2019-04-25T14:46:27.829Z,19.80
2019-04-25T14:48:00.293Z,19.80
2019-04-25T14:49:32.915Z,19.80
2019-04-25T14:51:05.487Z,19.90
2019-04-25T14:52:38.678Z,19.90
2019-04-25T14:54:11.167Z,19.90
2019-04-25T14:55:49.371Z,20.00
2019-04-25T14:59:30.401Z,20.00
2019-04-25T15:01:42.856Z,20.00
2019-04-25T15:03:29.746Z,20.00
2019-04-25T15:05:04.551Z,20.10
2019-04-25T15:08:40.588Z,20.20
2019-04-25T15:12:23.579Z,20.20
2019-04-25T15:13:56.156Z,20.20
2019-04-25T15:15:29.322Z,20.20
2019-04-25T15:17:01.924Z,20.00
2019-04-25T15:18:46.102Z,19.80
2019-04-25T15:20:17.234Z,19.40
2019-04-25T15:21:46.463Z,19.20
2019-04-25T15:23:24.004Z,18.90
2019-04-25T15:24:56.328Z,18.60
2019-04-25T15:26:29.032Z,18.50
2019-04-25T15:28:01.496Z,18.30
2019-04-25T15:29:42.435Z,18.10
2019-04-25T15:31:14.859Z,18.00
2019-04-25T15:32:48.584Z,17.80
2019-04-25T15:34:21.303Z,17.70
2019-04-25T15:35:54.989Z,17.60
2019-04-25T15:37:27.919Z,17.50
2019-04-25T15:39:00.263Z,17.40
2019-04-25T15:40:34.426Z,17.40
2019-04-25T15:42:10.043Z,17.30
2019-04-25T15:43:42.704Z,17.80
2019-04-25T15:45:15.521Z,17.20
2019-04-25T15:46:47.846Z,17.20
2019-04-25T15:48:20.199Z,17.20
2019-04-25T15:49:52.607Z,17.10
2019-04-25T15:51:25.583Z,17.20
2019-04-25T15:52:58.071Z,17.10
2019-04-25T15:54:31.698Z,17.20
2019-04-25T15:56:04.437Z,17.10
2019-04-25T15:57:36.771Z,17.20
2019-04-25T15:59:09.195Z,17.20
2019-04-25T16:00:41.627Z,17.20
2019-04-25T16:02:16.305Z,17.30
2019-04-25T16:03:52.378Z,17.30
2019-04-25T16:05:23.998Z,17.30
2019-04-25T16:06:56.739Z,17.30
2019-04-25T16:08:29.232Z,17.30
2019-04-25T16:10:01.772Z,17.40
2019-04-25T16:11:35.384Z,17.50
2019-04-25T16:13:11.338Z,17.60
2019-04-25T16:14:43.967Z,17.70
2019-04-25T16:16:16.556Z,17.80
2019-04-25T16:17:50.631Z,17.80
2019-04-25T16:19:23.046Z,18.20
2019-04-25T16:20:55.379Z,17.90
2019-04-25T16:22:28.012Z,18.00
2019-04-25T16:24:01.416Z,18.00
2019-04-25T16:25:35.506Z,18.10
2019-04-25T16:27:08.723Z,18.10
2019-04-25T16:28:42.361Z,18.20
2019-04-25T16:30:14.800Z,18.30
2019-04-25T16:33:58.075Z,18.50
2019-04-25T16:37:41.333Z,18.70
2019-04-25T16:39:30.986Z,18.80
2019-04-25T16:41:07.170Z,18.90
2019-04-25T16:42:39.845Z,19.00
2019-04-25T16:44:12.324Z,19.20
2019-04-25T16:45:44.727Z,19.20
2019-04-25T16:47:17.123Z,19.30
2019-04-25T16:48:49.587Z,19.40
2019-04-25T16:50:22.000Z,19.40
2019-04-25T16:51:54.479Z,19.50
2019-04-25T16:53:26.879Z,19.60
2019-04-25T16:54:59.234Z,20.20
2019-04-25T16:56:32.467Z,19.80
2019-04-25T16:58:05.016Z,19.90
2019-04-25T16:59:37.714Z,20.00
2019-04-25T17:01:10.390Z,20.10
2019-04-25T17:02:42.829Z,20.20
2019-04-25T17:04:15.167Z,20.30
2019-04-25T17:05:47.706Z,20.40
2019-04-25T17:07:20.180Z,20.60
2019-04-25T17:08:52.594Z,20.60
2019-04-25T17:10:25.113Z,20.90
2019-04-25T17:11:58.101Z,20.90
2019-04-25T17:13:31.147Z,21.00
2019-04-25T17:15:04.637Z,21.10
2019-04-25T17:16:37.235Z,21.30
2019-04-25T17:18:09.665Z,21.30
2019-04-25T17:19:42.319Z,21.40
2019-04-25T17:21:16.535Z,21.60
2019-04-25T17:22:49.336Z,21.60
2019-04-25T17:24:21.722Z,21.80
2019-04-25T17:25:54.171Z,22.40
2019-04-25T17:27:26.600Z,21.90
2019-04-25T17:28:59.072Z,22.00
2019-04-25T17:30:31.420Z,22.20
2019-04-25T17:32:03.855Z,22.20
2019-04-25T17:33:36.349Z,22.30
2019-04-25T17:35:08.814Z,22.40
2019-04-25T17:36:41.178Z,22.50
2019-04-25T17:38:13.683Z,22.70
2019-04-25T17:39:46.167Z,22.70
2019-04-25T17:41:18.624Z,22.80
2019-04-25T17:42:51.098Z,23.00
2019-04-25T17:44:23.513Z,23.00
2019-04-25T17:45:55.935Z,23.10
2019-04-25T17:47:28.286Z,23.20
2019-04-25T17:49:00.796Z,23.40
2019-04-25T17:50:34.247Z,23.40
2019-04-25T17:52:06.809Z,23.50
2019-04-25T17:53:39.177Z,23.60
2019-04-25T17:55:11.589Z,23.70
2019-04-25T17:56:44.081Z,23.70
2019-04-25T17:58:16.530Z,23.80
2019-04-25T17:59:48.909Z,23.90
2019-04-25T18:01:21.323Z,24.00
2019-04-25T18:02:59.038Z,24.00
2019-04-25T18:04:27.783Z,24.10
2019-04-25T18:06:00.252Z,24.30
2019-04-25T18:07:33.046Z,24.30
2019-04-25T18:09:06.559Z,24.40
2019-04-25T18:10:38.963Z,24.50
2019-04-25T18:12:11.375Z,24.50
2019-04-25T18:13:43.819Z,24.50
2019-04-25T18:15:16.283Z,24.60
2019-04-25T18:16:48.802Z,24.70
2019-04-25T18:18:21.396Z,24.80
2019-04-25T18:19:53.799Z,24.80
2019-04-25T18:21:26.207Z,24.90
2019-04-25T18:22:58.564Z,25.00
2019-04-25T18:24:30.975Z,25.00
2019-04-25T18:26:03.479Z,25.10
2019-04-25T18:27:36.661Z,25.10
2019-04-25T18:29:10.043Z,25.30
2019-04-25T18:30:43.250Z,25.30
2019-04-25T18:32:16.023Z,25.30
2019-04-25T18:33:48.454Z,25.40
2019-04-25T18:35:20.916Z,25.40
2019-04-25T18:36:53.423Z,25.50
2019-04-25T18:38:25.824Z,25.50
2019-04-25T18:39:58.851Z,25.60
2019-04-25T18:41:31.280Z,25.70
2019-04-25T18:43:03.837Z,25.70
2019-04-25T18:44:36.709Z,25.70
2019-04-25T18:46:09.323Z,25.80
2019-04-25T18:47:42.459Z,25.80
2019-04-25T18:49:15.035Z,25.80
2019-04-25T18:50:47.419Z,25.90
2019-04-25T18:52:19.841Z,25.90
2019-04-25T18:53:52.163Z,26.00
2019-04-25T18:55:24.623Z,26.00
2019-04-25T18:56:57.037Z,26.10
2019-04-25T18:58:29.542Z,26.10
2019-04-25T19:00:01.978Z,26.20
2019-04-25T19:01:34.469Z,26.30
2019-04-25T19:03:07.062Z,26.30
2019-04-25T19:04:39.590Z,26.30
2019-04-25T19:06:12.074Z,26.40
2019-04-25T19:07:45.334Z,26.40
2019-04-25T19:09:17.866Z,26.50
2019-04-25T19:10:50.384Z,26.60
2019-04-25T19:12:22.899Z,26.60
2019-04-25T19:13:55.252Z,26.60
2019-04-25T19:15:27.684Z,26.70
2019-04-25T19:17:00.088Z,26.70
2019-04-25T19:18:32.548Z,26.80
2019-04-25T19:20:04.998Z,26.80
2019-04-25T19:21:37.360Z,26.80
2019-04-25T19:23:09.721Z,26.90
2019-04-25T19:24:45.062Z,26.90
2019-04-25T19:26:16.492Z,27.00
2019-04-25T19:27:48.987Z,27.00
2019-04-25T19:29:21.639Z,27.00
2019-04-25T19:30:54.136Z,27.00
2019-04-25T19:32:26.471Z,27.00
2019-04-25T19:33:58.948Z,27.10
2019-04-25T19:35:31.418Z,27.10
2019-04-25T19:37:03.828Z,27.10
2019-04-25T19:38:36.162Z,27.20
2019-04-25T19:40:08.811Z,27.20
2019-04-25T19:41:41.609Z,27.20
2019-04-25T19:43:14.027Z,27.30
2019-04-25T19:44:47.191Z,27.30
2019-04-25T19:46:19.699Z,27.40
2019-04-25T19:47:52.094Z,27.40
2019-04-25T19:49:24.739Z,27.50
2019-04-25T19:50:57.091Z,27.40
2019-04-25T19:52:29.767Z,27.50
2019-04-25T19:54:02.531Z,27.50
2019-04-25T19:55:35.141Z,27.50
2019-04-25T19:57:07.562Z,28.00
2019-04-25T19:58:39.891Z,27.50
2019-04-25T20:00:12.227Z,27.50
2019-04-25T20:01:45.879Z,27.50
2019-04-25T20:03:18.526Z,27.60
2019-04-25T20:04:51.204Z,27.60
2019-04-25T20:06:23.766Z,27.60
2019-04-25T20:07:56.216Z,27.60
2019-04-25T20:09:28.765Z,28.20
2019-04-25T20:11:01.546Z,27.60
2019-04-25T20:12:34.556Z,27.60
2019-04-25T20:14:06.965Z,27.70
2019-04-25T20:15:39.293Z,28.20
2019-04-25T20:17:11.743Z,27.70
2019-04-25T20:18:44.734Z,27.70
2019-04-25T20:20:18.084Z,27.70
2019-04-25T20:21:50.564Z,27.80